Dotson, Texas
Current Conditions -  °F | °C
As of 9:55 AM on Thursday 27 Nov 2014 (Local Time) from KRFI Reporting Station
Clear Clear  
Wind Chill: 46°   Ceiling: Unl
Heat Index: 50°   Visibility: 10mi
Dew Point: 27°   Wind: 8mph
Humidity: 42%   Direction: 10°N
Pressure: 30.53"   Gusts: NA
Location:  32.046°N, 94.5024°W
Report Text: KRFI 271555Z AUTO 01007KT 10SM CLR 10/M03 A3053 RMK AO2 T00981026
Loading
Personal Weather Stations






























Interactive Weather Map New forecast layout! Learn more

10-Day Weather Forecast

Advertisements
Track Severe Weather on mobile